Time;durP1;ratioP1;P1;durP2;ratioP2;P2;SDS_P1;SDS_P2;PMS_P1;PMS_P2;Temp;Humidity;BMP_temperature;BMP_pressure;BME280_temperature;BME280_humidity;BME280_pressure;Samples;Min_cycle;Max_cycle;Signal;HPM_P1;HPM_P2
2022/05/16 00:01:55;;;;;;;4.23;1.60;;;13.70;76.60;;;;;;5075963;28;20201;-67
2022/05/16 00:04:22;;;;;;;3.00;1.47;;;13.70;76.70;;;;;;5076153;28;20223;-68
2022/05/16 00:06:49;;;;;;;2.60;1.80;;;13.70;77.60;;;;;;5075112;28;20209;-68
2022/05/16 00:09:16;;;;;;;2.87;1.60;;;13.70;77.00;;;;;;5077817;28;20213;-68
2022/05/16 00:11:44;;;;;;;4.03;1.50;;;13.70;77.00;;;;;;5081663;28;20239;-68
2022/05/16 00:14:11;;;;;;;3.00;1.60;;;13.70;76.90;;;;;;5076895;28;20233;-68
2022/05/16 00:16:38;;;;;;;3.87;1.63;;;13.70;77.10;;;;;;5076497;28;20240;-68
2022/05/16 00:19:06;;;;;;;2.90;1.23;;;13.70;77.30;;;;;;5076130;28;20224;-68
2022/05/16 00:21:33;;;;;;;2.20;1.57;;;13.70;77.50;;;;;;5076430;28;20213;-67
2022/05/16 00:24:00;;;;;;;5.00;1.67;;;13.60;77.40;;;;;;5082828;28;20366;-68
2022/05/16 00:26:27;;;;;;;5.93;1.90;;;13.60;77.60;;;;;;5063492;28;20228;-68
2022/05/16 00:28:55;;;;;;;3.37;1.73;;;13.60;77.50;;;;;;5083945;28;20235;-69
2022/05/16 00:31:22;;;;;;;2.20;1.53;;;13.60;77.70;;;;;;5083328;28;20239;-68
2022/05/16 00:33:49;;;;;;;3.63;1.80;;;13.60;77.70;;;;;;5076167;28;20284;-67
2022/05/16 00:36:16;;;;;;;2.10;1.33;;;13.60;77.80;;;;;;5071061;28;20210;-68
2022/05/16 00:38:43;;;;;;;3.10;1.30;;;13.60;77.90;;;;;;5095469;28;20315;-68
2022/05/16 00:41:10;;;;;;;1.87;1.20;;;13.60;78.20;;;;;;5097026;28;20661;-68
2022/05/16 00:43:47;;;;;;;4.27;1.53;;;13.60;78.20;;;;;;5094037;28;20283;-67
2022/05/16 00:46:17;;;;;;;3.10;1.57;;;13.50;78.00;;;;;;5066245;28;20212;-68
2022/05/16 00:48:44;;;;;;;2.83;1.50;;;13.50;78.30;;;;;;5076806;28;20323;-67
2022/05/16 00:51:15;;;;;;;4.87;1.63;;;13.40;78.30;;;;;;5086705;28;20205;-68
2022/05/16 00:53:43;;;;;;;2.87;1.60;;;13.40;78.30;;;;;;5076127;28;20284;-68
2022/05/16 00:56:11;;;;;;;4.50;1.60;;;13.40;78.40;;;;;;5067732;28;20297;-68
2022/05/16 00:58:41;;;;;;;2.93;1.30;;;13.30;78.60;;;;;;5070570;28;20228;-68
2022/05/16 01:04:47;;;;;;;1.73;1.63;;;13.30;79.10;;;;;;5081234;28;20276;-68
2022/05/16 01:06:43;;;;;;;2.83;1.70;;;13.20;79.50;;;;;;5075239;28;20227;-67
2022/05/16 01:09:10;;;;;;;2.33;1.60;;;13.10;79.80;;;;;;5075806;28;20308;-67
2022/05/16 01:11:39;;;;;;;5.23;1.70;;;13.10;80.30;;;;;;5077119;28;20725;-68
2022/05/16 01:14:06;;;;;;;3.20;1.50;;;13.00;80.40;;;;;;5076543;28;20290;-68
2022/05/16 01:16:34;;;;;;;4.43;1.97;;;12.90;80.70;;;;;;5073441;28;20220;-68
2022/05/16 01:19:02;;;;;;;4.67;2.10;;;12.90;81.00;;;;;;5073342;28;20236;-67
2022/05/16 01:21:35;;;;;;;2.03;1.57;;;12.80;81.20;;;;;;5075765;28;20240;-68
2022/05/16 01:24:07;;;;;;;4.37;1.73;;;12.80;80.90;;;;;;5083335;28;20228;-67
2022/05/16 01:26:36;;;;;;;4.07;1.70;;;12.80;81.00;;;;;;5078692;28;20205;-67
2022/05/16 01:29:04;;;;;;;2.67;1.67;;;12.80;81.10;;;;;;5078627;28;20225;-67
2022/05/16 01:31:32;;;;;;;3.10;1.40;;;12.70;80.80;;;;;;5079732;28;20264;-68
2022/05/16 01:33:59;;;;;;;2.47;1.57;;;12.70;80.60;;;;;;5080412;28;20217;-69
2022/05/16 01:36:26;;;;;;;4.60;1.80;;;12.60;80.70;;;;;;5072370;28;20677;-68
2022/05/16 01:38:53;;;;;;;4.67;1.80;;;12.60;80.80;;;;;;5064591;28;20692;-67
2022/05/16 01:41:24;;;;;;;2.03;1.20;;;12.50;80.70;;;;;;5078512;28;20276;-68
2022/05/16 01:43:55;;;;;;;3.27;1.97;;;12.50;80.80;;;;;;5079529;28;20197;-68
2022/05/16 01:46:25;;;;;;;3.87;1.40;;;12.40;80.90;;;;;;5078146;28;20243;-67
2022/05/16 01:48:53;;;;;;;2.63;1.10;;;12.30;81.20;;;;;;5078277;28;20665;-67
2022/05/16 01:51:21;;;;;;;3.37;1.43;;;12.30;81.50;;;;;;5076978;28;20625;-68
2022/05/16 01:53:48;;;;;;;2.17;1.40;;;12.30;81.60;;;;;;5074931;28;20228;-68
2022/05/16 01:56:15;;;;;;;7.23;2.57;;;12.30;81.10;;;;;;5073287;28;20640;-67
2022/05/16 01:58:44;;;;;;;2.30;1.40;;;12.30;81.70;;;;;;5073223;28;20225;-68
2022/05/16 02:01:12;;;;;;;3.13;1.30;;;12.30;82.20;;;;;;5077822;28;20243;-68
2022/05/16 02:03:40;;;;;;;3.30;1.47;;;12.30;82.20;;;;;;5075943;28;20205;-68
2022/05/16 02:06:07;;;;;;;1.57;1.30;;;12.30;82.20;;;;;;5067002;28;20557;-68
2022/05/16 02:08:34;;;;;;;3.23;1.37;;;12.30;82.30;;;;;;5077654;28;20592;-68
2022/05/16 02:11:02;;;;;;;3.17;1.37;;;12.20;82.70;;;;;;5077001;28;20296;-67
2022/05/16 02:13:29;;;;;;;5.70;1.73;;;12.20;82.80;;;;;;5077364;28;20244;-67
2022/05/16 02:15:58;;;;;;;3.73;1.23;;;12.20;82.90;;;;;;5073215;28;20233;-68
2022/05/16 02:18:25;;;;;;;3.17;1.60;;;12.20;83.10;;;;;;5087840;28;20196;-69
2022/05/16 02:24:38;;;;;;;2.87;1.50;;;12.10;83.30;;;;;;5076369;28;20574;-69
2022/05/16 02:26:24;;;;;;;4.70;1.47;;;12.00;83.90;;;;;;5075089;28;20331;-67
2022/05/16 02:28:51;;;;;;;3.67;1.80;;;11.90;84.30;;;;;;5076748;28;20551;-68
2022/05/16 02:31:20;;;;;;;3.83;1.50;;;11.90;84.70;;;;;;5076886;28;20208;-68
2022/05/16 02:33:48;;;;;;;1.93;1.27;;;11.90;85.00;;;;;;5075915;28;20287;-68
2022/05/16 02:36:15;;;;;;;5.60;1.70;;;11.90;85.20;;;;;;5068518;28;20213;-67
2022/05/16 02:38:43;;;;;;;4.13;1.60;;;11.90;85.40;;;;;;5076212;28;20284;-68
2022/05/16 02:41:11;;;;;;;2.97;1.60;;;11.90;85.70;;;;;;5087134;28;20661;-68
2022/05/16 02:43:37;;;;;;;3.10;1.40;;;11.90;85.60;;;;;;5078852;28;20288;-68
2022/05/16 02:46:04;;;;;;;4.27;1.70;;;11.90;85.70;;;;;;5067555;28;20371;-68
2022/05/16 02:48:33;;;;;;;5.30;1.50;;;11.90;85.90;;;;;;5058581;28;20320;-68
2022/05/16 02:50:59;;;;;;;4.10;1.50;;;11.90;86.00;;;;;;5068463;28;20210;-67
2022/05/16 02:53:26;;;;;;;4.17;1.23;;;11.90;86.10;;;;;;5070317;28;20225;-68
2022/05/16 02:55:53;;;;;;;3.47;1.70;;;12.00;86.30;;;;;;5071889;28;20845;-67
2022/05/16 02:58:20;;;;;;;3.83;1.70;;;12.00;86.40;;;;;;5062783;28;20197;-68
2022/05/16 03:00:47;;;;;;;4.13;1.67;;;12.00;86.50;;;;;;5076031;28;20661;-68
2022/05/16 03:03:14;;;;;;;3.87;1.70;;;12.00;86.40;;;;;;5076933;28;20599;-68
2022/05/16 03:05:42;;;;;;;4.47;1.80;;;12.10;86.70;;;;;;5075053;28;20204;-67
2022/05/16 03:08:10;;;;;;;2.03;1.43;;;12.10;87.40;;;;;;5085520;28;20228;-68
2022/05/16 03:10:37;;;;;;;3.20;1.80;;;12.10;86.70;;;;;;5081659;28;20214;-68
2022/05/16 03:13:04;;;;;;;3.67;1.50;;;12.20;86.90;;;;;;5071342;28;20236;-68
2022/05/16 03:15:31;;;;;;;4.60;1.87;;;12.20;87.10;;;;;;5066125;28;20201;-68
2022/05/16 03:17:58;;;;;;;4.00;1.80;;;12.20;87.10;;;;;;5076190;28;20278;-68
2022/05/16 03:20:25;;;;;;;6.67;1.70;;;12.20;87.30;;;;;;5076605;28;20216;-68
2022/05/16 03:22:54;;;;;;;9.07;1.80;;;12.30;87.70;;;;;;5076633;28;20643;-68
2022/05/16 03:25:21;;;;;;;5.10;2.10;;;12.30;88.00;;;;;;5071298;28;20267;-68
2022/05/16 03:27:47;;;;;;;3.37;2.00;;;12.40;88.40;;;;;;5072860;28;20213;-67
2022/05/16 03:30:15;;;;;;;5.03;1.87;;;12.40;88.60;;;;;;5075453;28;20260;-68
2022/05/16 03:32:42;;;;;;;4.47;1.77;;;12.50;88.90;;;;;;5074112;28;20220;-68
2022/05/16 03:35:09;;;;;;;3.20;1.83;;;12.50;89.10;;;;;;5074514;28;20197;-67
2022/05/16 03:37:36;;;;;;;4.50;1.80;;;12.60;89.10;;;;;;5073718;28;20296;-69
2022/05/16 03:42:50;;;;;;;3.37;1.80;;;12.70;90.10;;;;;;5076489;28;20571;-67
2022/05/16 03:45:17;;;;;;;5.50;2.10;;;12.70;89.70;;;;;;5069668;28;20679;-67
2022/05/16 03:47:44;;;;;;;4.10;1.80;;;12.80;89.70;;;;;;5076676;28;20658;-68
2022/05/16 03:50:12;;;;;;;4.80;1.80;;;12.90;89.80;;;;;;5075077;28;20312;-68
2022/05/16 03:52:39;;;;;;;4.60;1.60;;;13.00;89.70;;;;;;5069335;28;20245;-69
2022/05/16 03:55:09;;;;;;;2.83;1.50;;;13.00;89.60;;;;;;5079271;28;20245;-69
2022/05/16 03:57:36;;;;;;;2.37;1.60;;;13.20;89.60;;;;;;5061383;28;20292;-69
2022/05/16 04:00:04;;;;;;;3.37;1.83;;;13.20;89.40;;;;;;5078086;28;20292;-68
2022/05/16 04:02:30;;;;;;;7.57;2.30;;;13.30;89.40;;;;;;5076441;28;20591;-68
2022/05/16 04:04:57;;;;;;;5.23;2.13;;;13.40;89.30;;;;;;5072029;28;20245;-69
2022/05/16 04:07:24;;;;;;;4.30;1.97;;;13.40;89.10;;;;;;5076171;28;20981;-68
2022/05/16 04:09:51;;;;;;;3.53;2.30;;;13.40;89.00;;;;;;5075059;28;20235;-68
2022/05/16 04:12:20;;;;;;;4.70;2.20;;;13.60;88.90;;;;;;5076084;28;20201;-68
2022/05/16 04:14:47;;;;;;;3.27;2.07;;;13.70;88.70;;;;;;5073348;28;20241;-68
2022/05/16 04:17:14;;;;;;;3.33;2.13;;;13.70;88.70;;;;;;5071929;28;20570;-68
2022/05/16 04:19:41;;;;;;;3.83;2.10;;;13.80;88.70;;;;;;5076433;28;20201;-69
2022/05/16 04:22:08;;;;;;;5.20;2.10;;;13.80;88.80;;;;;;5075515;28;20296;-68
2022/05/16 04:24:35;;;;;;;2.70;2.10;;;13.80;88.60;;;;;;5075331;28;20204;-68
2022/05/16 04:27:02;;;;;;;2.07;1.57;;;13.80;88.20;;;;;;5068688;28;20201;-68
2022/05/16 04:29:31;;;;;;;2.43;1.73;;;13.90;87.90;;;;;;5089108;28;20316;-69
2022/05/16 04:31:58;;;;;;;2.70;1.80;;;13.90;88.20;;;;;;5075104;28;20649;-68
2022/05/16 04:34:25;;;;;;;3.43;1.40;;;13.90;87.10;;;;;;5075471;28;20201;-69
2022/05/16 04:36:51;;;;;;;2.87;1.83;;;14.00;86.70;;;;;;5065752;28;20207;-68
2022/05/16 04:39:18;;;;;;;4.37;1.80;;;14.00;86.40;;;;;;5075846;28;20225;-68
2022/05/16 04:44:36;;;;;;;2.00;1.40;;;14.10;86.10;;;;;;5073849;28;20204;-69
2022/05/16 04:47:03;;;;;;;4.93;2.90;;;14.20;85.80;;;;;;5072739;28;20209;-68
2022/05/16 04:49:31;;;;;;;3.87;1.90;;;14.10;85.30;;;;;;5074504;28;20699;-69
2022/05/16 04:51:58;;;;;;;4.87;1.63;;;14.00;85.70;;;;;;5088583;28;20732;-69
2022/05/16 04:54:25;;;;;;;3.40;1.63;;;14.10;85.80;;;;;;5074975;28;20649;-68
2022/05/16 04:56:52;;;;;;;3.97;1.80;;;14.00;86.00;;;;;;5072552;28;20678;-68
2022/05/16 04:59:19;;;;;;;2.83;2.07;;;14.00;86.10;;;;;;5065038;28;20201;-68
2022/05/16 05:01:48;;;;;;;4.57;1.80;;;14.10;87.00;;;;;;5075137;28;20493;-69
2022/05/16 05:04:15;;;;;;;4.73;1.90;;;14.10;86.30;;;;;;5076380;28;20205;-68
2022/05/16 05:06:42;;;;;;;5.97;2.23;;;14.20;86.40;;;;;;5079086;28;20213;-68
2022/05/16 05:09:09;;;;;;;2.70;1.83;;;14.20;86.50;;;;;;5079051;28;20300;-68
2022/05/16 05:14:32;;;;;;;6.53;2.33;;;14.10;86.70;;;;;;5078291;28;20252;-68
2022/05/16 05:17:01;;;;;;;3.83;1.90;;;14.20;87.00;;;;;;5073368;28;20204;-68
2022/05/16 05:19:28;;;;;;;4.57;2.03;;;14.20;87.50;;;;;;5079137;28;20236;-68
2022/05/16 05:21:55;;;;;;;5.17;1.93;;;14.10;87.70;;;;;;5069821;28;20288;-69
2022/05/16 05:24:22;;;;;;;3.97;2.20;;;14.20;88.20;;;;;;5070416;28;20237;-68
2022/05/16 05:26:49;;;;;;;4.03;1.93;;;14.20;87.80;;;;;;5068495;28;20206;-69
2022/05/16 05:29:16;;;;;;;5.10;2.10;;;14.20;87.70;;;;;;5072651;28;20283;-68
2022/05/16 05:31:43;;;;;;;5.40;1.93;;;14.20;86.70;;;;;;5093051;28;20269;-69
2022/05/16 05:34:12;;;;;;;9.63;1.90;;;14.30;86.10;;;;;;5074387;28;20197;-68
2022/05/16 05:36:40;;;;;;;7.97;1.90;;;14.20;86.00;;;;;;5080984;28;20217;-68
2022/05/16 05:39:08;;;;;;;4.73;1.57;;;14.20;85.90;;;;;;5077913;28;20218;-69
2022/05/16 05:41:35;;;;;;;5.83;2.10;;;14.20;85.90;;;;;;5076675;28;20258;-69
2022/05/16 05:44:02;;;;;;;3.10;1.40;;;14.20;85.80;;;;;;5078752;28;20240;-69
2022/05/16 05:46:35;;;;;;;4.93;1.63;;;14.20;85.90;;;;;;5081979;28;20236;-68
2022/05/16 05:49:03;;;;;;;3.20;1.40;;;14.20;85.60;;;;;;5078095;28;20584;-69
2022/05/16 05:51:31;;;;;;;5.73;1.73;;;14.20;85.50;;;;;;5070871;28;20213;-69
2022/05/16 05:53:58;;;;;;;7.77;2.03;;;14.30;84.90;;;;;;5079525;28;20213;-69
2022/05/16 05:56:25;;;;;;;2.50;1.43;;;14.20;84.40;;;;;;5082129;28;20271;-69
2022/05/16 05:58:52;;;;;;;4.30;1.40;;;14.20;84.30;;;;;;5076265;28;20684;-70
2022/05/16 06:01:19;;;;;;;3.10;1.53;;;14.30;83.80;;;;;;5071945;28;20224;-69
2022/05/16 06:03:46;;;;;;;5.23;1.80;;;14.30;83.50;;;;;;5088553;28;20285;-70
2022/05/16 06:06:14;;;;;;;3.30;1.73;;;14.30;84.20;;;;;;5076030;28;20448;-70
2022/05/16 06:08:42;;;;;;;3.53;1.60;;;14.40;83.50;;;;;;5078518;28;20954;-70
2022/05/16 06:11:09;;;;;;;3.37;1.90;;;14.40;82.80;;;;;;5084089;28;20197;-69
2022/05/16 06:13:36;;;;;;;4.20;1.70;;;14.40;82.30;;;;;;5073082;28;20260;-69
2022/05/16 06:16:03;;;;;;;1.83;1.27;;;14.40;82.00;;;;;;5075632;28;20229;-68
2022/05/16 06:18:29;;;;;;;4.73;1.60;;;14.40;81.40;;;;;;5085024;28;20240;-69
2022/05/16 06:20:56;;;;;;;3.50;1.10;;;14.40;81.60;;;;;;5086298;28;20224;-69
2022/05/16 06:23:23;;;;;;;1.90;1.20;;;14.40;81.70;;;;;;5067466;28;20213;-69
2022/05/16 06:25:52;;;;;;;2.17;1.40;;;14.50;81.20;;;;;;5073684;28;20205;-68
2022/05/16 06:28:21;;;;;;;3.00;1.27;;;14.50;80.70;;;;;;5082029;28;20207;-69
2022/05/16 06:30:50;;;;;;;2.63;1.13;;;14.50;80.50;;;;;;5083460;28;20312;-68
2022/05/16 06:33:19;;;;;;;4.17;0.90;;;14.50;80.40;;;;;;5075599;28;20680;-68
2022/05/16 06:35:46;;;;;;;4.23;1.90;;;14.60;80.50;;;;;;5079189;28;20216;-70
2022/05/16 06:38:16;;;;;;;3.97;1.80;;;14.60;80.30;;;;;;5085584;28;20936;-67
2022/05/16 06:40:46;;;;;;;4.00;1.63;;;14.70;80.50;;;;;;5088553;28;20264;-69
2022/05/16 06:43:15;;;;;;;5.37;1.33;;;14.80;80.70;;;;;;5065796;28;20210;-69
2022/05/16 06:45:42;;;;;;;2.53;1.50;;;14.90;80.00;;;;;;5088414;28;20216;-69
2022/05/16 06:48:10;;;;;;;3.27;1.53;;;14.90;79.90;;;;;;5086631;28;20289;-70
2022/05/16 06:50:38;;;;;;;2.43;1.67;;;15.00;80.10;;;;;;5078011;28;20682;-68
2022/05/16 06:53:06;;;;;;;2.40;1.50;;;15.10;80.10;;;;;;5071857;28;20235;-68
2022/05/16 06:55:33;;;;;;;2.67;1.27;;;15.20;79.80;;;;;;5088645;28;20292;-70
2022/05/16 06:58:00;;;;;;;3.07;1.60;;;15.20;79.30;;;;;;5092312;28;20247;-68
2022/05/16 07:00:29;;;;;;;3.83;1.50;;;15.30;78.70;;;;;;5080930;28;20201;-69
2022/05/16 07:02:55;;;;;;;3.63;1.35;;;15.40;78.40;;;;;;5087936;28;20473;-67
2022/05/16 07:05:23;;;;;;;2.67;0.83;;;15.40;77.90;;;;;;5090159;28;20239;-69
2022/05/16 07:07:51;;;;;;;3.23;1.73;;;15.60;77.50;;;;;;5075303;28;20249;-69
2022/05/16 07:10:18;;;;;;;3.60;0.97;;;15.60;75.70;;;;;;5064774;28;20253;-69
2022/05/16 07:12:45;;;;;;;2.07;1.20;;;15.60;75.50;;;;;;5074188;28;20198;-69
2022/05/16 07:15:13;;;;;;;6.17;1.30;;;15.70;75.90;;;;;;5077485;28;20684;-68
2022/05/16 07:17:43;;;;;;;4.10;1.40;;;15.90;75.70;;;;;;5071844;28;20209;-68
2022/05/16 07:20:11;;;;;;;3.97;1.03;;;16.10;74.30;;;;;;5062801;28;20310;-67
2022/05/16 07:22:41;;;;;;;3.63;1.10;;;16.20;72.40;;;;;;5074325;28;20263;-67
2022/05/16 07:25:10;;;;;;;4.88;0.70;;;16.40;70.60;;;;;;5074226;28;20288;-68
2022/05/16 07:30:22;;;;;;;1.17;0.70;;;16.60;68.70;;;;;;5075508;28;20236;-68
2022/05/16 07:32:51;;;;;;;3.57;0.90;;;16.60;66.70;;;;;;5068867;28;20231;-68
2022/05/16 07:35:22;;;;;;;0.97;0.70;;;16.80;66.20;;;;;;5071641;28;20221;-69
2022/05/16 07:37:49;;;;;;;5.70;2.13;;;16.90;65.50;;;;;;5073693;28;20205;-67
2022/05/16 07:40:17;;;;;;;2.22;0.90;;;17.00;64.20;;;;;;5075072;28;20240;-66
2022/05/16 07:42:44;;;;;;;1.27;0.90;;;17.20;63.90;;;;;;5075843;28;20197;-68
2022/05/16 07:45:12;;;;;;;2.95;1.40;;;17.30;63.80;;;;;;5077280;28;20237;-68
2022/05/16 07:47:39;;;;;;;2.40;0.90;;;17.40;63.50;;;;;;5074527;28;20683;-70
2022/05/16 07:50:09;;;;;;;3.75;1.17;;;17.60;62.60;;;;;;5069803;28;20265;-70
2022/05/16 07:52:37;;;;;;;1.15;0.55;;;17.70;61.70;;;;;;5076342;28;20201;-69
2022/05/16 07:55:05;;;;;;;1.83;0.80;;;17.80;61.20;;;;;;5073234;28;20208;-67
2022/05/16 07:57:32;;;;;;;2.42;0.63;;;17.90;60.80;;;;;;5075801;28;20241;-68
2022/05/16 07:59:59;;;;;;;0.70;0.70;;;17.90;60.00;;;;;;5070502;28;20274;-68
2022/05/16 08:02:25;;;;;;;1.77;0.65;;;18.00;58.90;;;;;;5070993;28;20209;-68
2022/05/16 08:04:52;;;;;;;3.15;0.63;;;18.00;57.70;;;;;;5069531;28;20586;-68
2022/05/16 08:07:21;;;;;;;1.25;0.70;;;18.00;57.70;;;;;;5077968;28;20236;-67
2022/05/16 08:12:34;;;;;;;1.42;0.38;;;18.10;57.20;;;;;;5075098;28;20249;-68
2022/05/16 08:15:01;;;;;;;0.82;0.70;;;18.20;55.50;;;;;;5072259;28;20296;-68
2022/05/16 08:17:28;;;;;;;2.88;0.68;;;18.40;55.00;;;;;;5076782;28;20201;-67
2022/05/16 08:19:57;;;;;;;4.28;1.02;;;18.50;54.60;;;;;;5079338;28;20280;-68
2022/05/16 08:22:30;;;;;;;1.60;0.70;;;18.60;54.70;;;;;;5084047;28;20749;-67
2022/05/16 08:24:57;;;;;;;1.73;0.80;;;18.80;55.10;;;;;;5080737;28;20217;-68
2022/05/16 08:27:24;;;;;;;0.75;0.70;;;18.90;54.60;;;;;;5080166;28;20216;-68
2022/05/16 08:29:51;;;;;;;1.95;0.43;;;19.00;53.60;;;;;;5075720;28;20229;-69
2022/05/16 08:32:23;;;;;;;2.40;0.60;;;19.20;51.90;;;;;;5077335;28;20201;-68
2022/05/16 08:34:50;;;;;;;0.55;0.50;;;19.30;51.40;;;;;;5075470;28;20209;-67
2022/05/16 08:40:04;;;;;;;1.00;0.47;;;19.60;50.60;;;;;;5071604;28;20196;-69
2022/05/16 08:42:39;;;;;;;0.52;0.47;;;19.70;50.00;;;;;;5073614;28;20212;-67
2022/05/16 08:45:14;;;;;;;0.57;0.40;;;19.80;49.20;;;;;;5081815;28;20228;-68
2022/05/16 08:47:52;;;;;;;1.67;0.50;;;20.00;48.50;;;;;;5085120;28;20278;-69
2022/05/16 08:50:23;;;;;;;1.17;0.90;;;20.20;47.40;;;;;;5071688;28;20213;-68
2022/05/16 08:52:55;;;;;;;5.60;1.40;;;20.20;47.40;;;;;;5062109;28;20654;-68
2022/05/16 08:55:29;;;;;;;1.27;0.82;;;20.30;47.10;;;;;;5077370;28;20291;-69
2022/05/16 08:58:06;;;;;;;2.33;1.63;;;20.40;47.40;;;;;;5074945;28;20203;-68
2022/05/16 09:00:37;;;;;;;5.07;1.50;;;20.40;45.40;;;;;;5073887;28;20296;-68
2022/05/16 09:03:07;;;;;;;0.70;0.70;;;20.40;45.60;;;;;;5072677;28;20212;-68
2022/05/16 09:05:38;;;;;;;3.70;1.42;;;20.50;46.30;;;;;;5076467;28;20279;-69
2022/05/16 09:08:13;;;;;;;5.88;1.83;;;20.50;47.50;;;;;;5073561;28;20573;-69
2022/05/16 09:10:54;;;;;;;1.20;0.50;;;20.50;48.00;;;;;;5066621;28;20721;-69
2022/05/16 09:13:32;;;;;;;1.08;0.82;;;20.70;48.50;;;;;;5072465;28;20233;-69
2022/05/16 09:16:11;;;;;;;4.78;0.70;;;20.80;48.20;;;;;;5070785;28;20306;-67
2022/05/16 09:18:44;;;;;;;5.60;0.90;;;21.00;48.00;;;;;;5078079;28;20205;-71
2022/05/16 09:21:18;;;;;;;1.88;0.70;;;21.10;48.00;;;;;;5075493;28;20224;-71
2022/05/16 09:23:59;;;;;;;3.67;1.30;;;21.10;48.30;;;;;;5065664;28;20219;-70
2022/05/16 09:26:38;;;;;;;4.05;1.38;;;21.00;47.90;;;;;;5061679;28;20617;-69
2022/05/16 09:29:18;;;;;;;2.45;0.60;;;20.80;48.20;;;;;;5068978;28;20601;-69
2022/05/16 09:31:49;;;;;;;2.05;1.10;;;20.90;48.40;;;;;;5074905;28;20216;-69
2022/05/16 09:34:17;;;;;;;1.52;0.85;;;21.00;48.50;;;;;;5081931;28;20324;-70
2022/05/16 09:36:46;;;;;;;1.58;0.93;;;21.10;48.90;;;;;;5084880;28;20197;-69
2022/05/16 09:39:18;;;;;;;1.40;0.90;;;21.20;48.00;;;;;;5091662;28;20208;-69
2022/05/16 09:41:54;;;;;;;2.03;0.57;;;21.30;47.00;;;;;;5078912;28;20288;-67
2022/05/16 09:44:26;;;;;;;0.73;0.50;;;21.40;46.10;;;;;;5078246;28;20255;-68
2022/05/16 09:47:32;;;;;;;2.10;0.60;;;21.50;45.00;;;;;;5078846;28;20201;-69
2022/05/16 09:50:14;;;;;;;0.70;0.52;;;21.70;44.20;;;;;;5067970;28;20288;-68
2022/05/16 09:52:45;;;;;;;3.80;1.02;;;22.00;43.00;;;;;;5084548;28;20212;-66
2022/05/16 09:55:16;;;;;;;1.65;0.80;;;22.20;43.10;;;;;;5085247;28;20197;-67
2022/05/16 09:57:49;;;;;;;3.97;0.75;;;22.40;43.60;;;;;;5071311;28;20198;-68
2022/05/16 10:00:21;;;;;;;2.33;0.82;;;22.50;44.60;;;;;;5075104;28;20712;-67
2022/05/16 10:02:56;;;;;;;2.65;0.88;;;22.70;44.50;;;;;;5069199;28;20201;-69
2022/05/16 10:05:26;;;;;;;1.75;0.55;;;22.90;42.90;;;;;;5071464;28;20229;-68
2022/05/16 10:08:00;;;;;;;5.22;0.88;;;23.00;41.90;;;;;;5064991;28;20263;-68
2022/05/16 10:10:33;;;;;;;1.63;0.60;;;23.10;41.40;;;;;;5079666;28;20224;-67
2022/05/16 10:13:01;;;;;;;1.10;0.60;;;23.10;40.60;;;;;;5081486;28;20236;-68
2022/05/16 10:15:31;;;;;;;2.08;0.52;;;23.00;40.10;;;;;;5084485;28;20209;-68
2022/05/16 10:18:00;;;;;;;1.48;0.80;;;23.00;40.00;;;;;;5079147;28;20256;-69
2022/05/16 10:20:33;;;;;;;1.27;0.90;;;23.00;40.50;;;;;;5076871;28;20217;-70
2022/05/16 10:23:03;;;;;;;3.70;1.10;;;23.20;41.80;;;;;;5078424;28;20284;-69
2022/05/16 10:25:34;;;;;;;0.80;0.45;;;23.30;41.90;;;;;;5073648;28;20217;-68
2022/05/16 10:28:08;;;;;;;1.90;0.63;;;23.50;41.40;;;;;;5077059;28;20205;-70
2022/05/16 10:33:24;;;;;;;2.97;0.80;;;23.60;40.30;;;;;;5074816;28;20303;-68
2022/05/16 10:33:26;;;;;;;2.28;0.63;;;23.70;41.00;;;;;;5074260;28;20693;-69
2022/05/16 10:35:57;;;;;;;0.52;0.50;;;24.00;41.20;;;;;;5084921;28;20249;-70
2022/05/16 10:38:39;;;;;;;0.60;0.60;;;24.10;40.20;;;;;;5089401;28;20204;-69
2022/05/16 10:41:11;;;;;;;1.77;0.60;;;24.10;39.80;;;;;;5075143;28;20227;-69
2022/05/16 10:43:47;;;;;;;2.05;0.52;;;24.30;39.70;;;;;;5077115;28;20201;-69
2022/05/16 10:46:19;;;;;;;2.28;0.68;;;24.30;39.70;;;;;;5068970;28;20240;-69
2022/05/16 10:48:51;;;;;;;1.63;0.50;;;24.30;39.80;;;;;;5072961;28;20209;-70
2022/05/16 10:51:24;;;;;;;3.00;0.68;;;24.30;39.40;;;;;;5069475;28;20216;-69
2022/05/16 10:54:06;;;;;;;3.63;0.70;;;24.30;40.00;;;;;;5078101;28;20216;-69
2022/05/16 10:56:50;;;;;;;1.27;0.40;;;24.40;39.00;;;;;;5077443;28;20221;-68
2022/05/16 10:59:32;;;;;;;3.45;1.02;;;24.50;38.40;;;;;;5074943;28;20205;-67
2022/05/16 11:02:05;;;;;;;1.27;0.50;;;24.70;38.20;;;;;;5076139;28;20208;-68
2022/05/16 11:05:08;;;;;;;2.28;0.63;;;24.80;37.70;;;;;;5065266;28;20211;-70
2022/05/16 11:07:43;;;;;;;2.40;1.00;;;25.00;37.20;;;;;;5074388;28;20196;-68
2022/05/16 11:10:17;;;;;;;0.60;0.50;;;25.00;36.70;;;;;;5079347;28;20202;-69
2022/05/16 11:12:49;;;;;;;4.47;2.10;;;24.90;36.20;;;;;;5076799;28;20221;-69
2022/05/16 11:15:27;;;;;;;0.90;0.60;;;24.70;36.50;;;;;;5079548;28;20261;-69
2022/05/16 11:18:00;;;;;;;0.77;0.60;;;24.50;37.10;;;;;;5080445;28;20212;-69
2022/05/16 11:20:32;;;;;;;0.40;0.40;;;24.30;37.50;;;;;;5079195;28;20235;-69
2022/05/16 11:23:07;;;;;;;4.57;1.55;;;24.00;36.40;;;;;;5081291;28;20224;-69
2022/05/16 11:25:43;;;;;;;3.00;1.20;;;23.70;37.20;;;;;;5084913;28;20196;-69
2022/05/16 11:28:17;;;;;;;1.42;0.70;;;23.80;38.70;;;;;;5072405;28;21382;-70
2022/05/16 11:30:49;;;;;;;2.17;0.70;;;23.90;37.80;;;;;;5085012;28;20220;-71
2022/05/16 11:33:28;;;;;;;0.47;0.45;;;24.10;37.90;;;;;;5076473;28;20197;-71
2022/05/16 11:35:59;;;;;;;0.85;0.52;;;24.30;37.80;;;;;;5077492;28;20213;-70
2022/05/16 11:38:51;;;;;;;1.38;0.60;;;24.50;37.40;;;;;;5075907;28;20205;-69
2022/05/16 11:41:35;;;;;;;0.75;0.40;;;24.50;36.80;;;;;;5094596;28;20283;-69
2022/05/16 11:44:20;;;;;;;3.42;1.10;;;24.60;36.90;;;;;;5084327;28;20630;-70
2022/05/16 11:46:53;;;;;;;1.42;0.63;;;24.70;36.70;;;;;;5084709;28;20197;-69
2022/05/16 11:49:28;;;;;;;0.52;0.40;;;24.70;36.40;;;;;;5079305;28;20223;-70
2022/05/16 11:52:26;;;;;;;2.28;0.60;;;24.70;36.70;;;;;;5064683;28;20274;-70
2022/05/16 11:54:58;;;;;;;1.52;0.60;;;24.90;37.10;;;;;;5071995;28;20208;-70
2022/05/16 12:00:33;;;;;;;0.52;0.45;;;25.00;36.10;;;;;;5077356;28;20272;-70
2022/05/16 12:03:16;;;;;;;0.60;0.60;;;25.00;35.90;;;;;;5075228;28;20213;-69
2022/05/16 12:05:46;;;;;;;0.80;0.57;;;25.00;35.80;;;;;;5070982;28;20233;-70
2022/05/16 12:08:41;;;;;;;0.90;0.60;;;25.10;36.00;;;;;;5075476;28;20233;-69
2022/05/16 12:11:19;;;;;;;2.08;0.50;;;25.10;35.80;;;;;;5078524;28;20221;-70
2022/05/16 12:14:21;;;;;;;1.33;0.77;;;25.30;35.90;;;;;;5070562;28;20238;-71
2022/05/16 12:16:54;;;;;;;1.23;0.60;;;25.40;36.40;;;;;;5075507;28;20204;-69
2022/05/16 12:19:30;;;;;;;2.17;0.50;;;25.60;35.70;;;;;;5079255;28;20213;-71
2022/05/16 12:22:00;;;;;;;0.65;0.60;;;25.70;35.10;;;;;;5068635;28;20196;-70
2022/05/16 12:24:57;;;;;;;1.75;0.57;;;25.60;34.70;;;;;;5073701;28;20193;-71
2022/05/16 12:27:30;;;;;;;2.03;0.70;;;25.40;34.80;;;;;;5081867;28;20297;-71
2022/05/16 12:30:00;;;;;;;0.90;0.55;;;25.00;34.70;;;;;;5074638;28;20209;-70
2022/05/16 12:32:52;;;;;;;1.05;0.52;;;24.90;36.50;;;;;;5076660;28;20212;-69
2022/05/16 12:35:44;;;;;;;2.05;0.60;;;24.80;35.90;;;;;;5071450;28;20293;-70
2022/05/16 12:38:14;;;;;;;1.15;0.60;;;25.00;35.80;;;;;;5083867;28;20240;-70
2022/05/16 12:41:11;;;;;;;0.80;0.50;;;25.10;35.40;;;;;;5075291;28;20205;-69
2022/05/16 12:43:54;;;;;;;0.82;0.70;;;25.30;35.40;;;;;;5054164;28;20216;-68
2022/05/16 12:46:46;;;;;;;0.50;0.50;;;25.40;35.00;;;;;;5075018;28;20204;-70
2022/05/16 12:49:49;;;;;;;3.00;0.45;;;25.30;34.90;;;;;;5067410;28;20741;-69
2022/05/16 12:52:41;;;;;;;2.00;0.50;;;25.20;35.00;;;;;;5065900;28;20221;-69
2022/05/16 12:55:41;;;;;;;0.90;0.50;;;25.20;35.30;;;;;;5069555;28;20201;-71
2022/05/16 12:58:13;;;;;;;1.73;0.60;;;25.20;34.90;;;;;;5059540;28;20622;-70
2022/05/16 13:00:46;;;;;;;1.50;0.50;;;25.20;35.50;;;;;;5076567;28;20619;-69
2022/05/16 13:03:38;;;;;;;0.85;0.40;;;25.10;34.80;;;;;;5075720;28;20208;-69
2022/05/16 13:06:11;;;;;;;3.05;0.70;;;25.00;35.20;;;;;;5068780;28;20658;-71
2022/05/16 13:08:45;;;;;;;1.00;0.40;;;24.90;35.40;;;;;;5069343;28;20224;-70
2022/05/16 13:11:21;;;;;;;1.60;0.70;;;24.70;34.50;;;;;;5062508;28;20252;-70
2022/05/16 13:14:05;;;;;;;0.95;0.70;;;24.50;35.00;;;;;;5075979;28;20275;-70
2022/05/16 13:16:34;;;;;;;1.05;0.60;;;24.40;35.80;;;;;;5066945;28;20208;-71
2022/05/16 13:19:06;;;;;;;1.15;0.43;;;24.30;35.60;;;;;;5091369;28;20229;-72
2022/05/16 13:21:40;;;;;;;0.77;0.57;;;24.20;34.90;;;;;;5073454;28;20283;-70
2022/05/16 13:24:11;;;;;;;1.88;0.60;;;24.10;35.00;;;;;;5080474;28;20208;-70
2022/05/16 13:29:22;;;;;;;0.50;0.47;;;23.80;36.10;;;;;;5086542;28;20227;-69
2022/05/16 13:31:52;;;;;;;0.65;0.60;;;23.90;36.80;;;;;;5083780;28;20307;-69
2022/05/16 13:34:33;;;;;;;1.60;0.70;;;23.90;36.60;;;;;;5090245;28;20255;-70
2022/05/16 13:37:01;;;;;;;2.38;0.70;;;23.90;36.40;;;;;;5086885;28;20260;-69